Time;durP1;ratioP1;P1;durP2;ratioP2;P2;SDS_P1;SDS_P2;PMS_P1;PMS_P2;Temp;Humidity;BMP_temperature;BMP_pressure;BME280_temperature;BME280_humidity;BME280_pressure;Samples;Min_cycle;Max_cycle;Signal;HPM_P1;HPM_P2
2023/06/26 00:01:01;;;;;;;;;;;;;;;19.77;40.88;100702.28;4941530;28;98068;-68
2023/06/26 00:03:28;;;;;;;;;;;;;;;19.74;40.89;100700.16;4923559;28;98541;-68
2023/06/26 00:06:00;;;;;;;;;;;;;;;19.72;40.92;100696.94;4924205;28;98121;-68
2023/06/26 00:08:27;;;;;;;;;;;;;;;19.70;41.06;100700.00;4928169;28;99401;-74
2023/06/26 00:10:53;;;;;;;;;;;;;;;19.68;40.95;100702.25;4925639;28;98116;-74
2023/06/26 00:13:20;;;;;;;;;;;;;;;19.67;40.97;100699.84;4941139;28;98316;-68
2023/06/26 00:15:47;;;;;;;;;;;;;;;19.63;40.98;100702.41;4929901;28;98288;-68
2023/06/26 00:18:13;;;;;;;;;;;;;;;19.61;40.99;100701.94;4927931;28;97856;-68
2023/06/26 00:20:39;;;;;;;;;;;;;;;19.59;40.88;100704.16;4937349;28;98035;-68
2023/06/26 00:23:07;;;;;;;;;;;;;;;19.56;40.92;100696.59;4924975;28;98440;-74
2023/06/26 00:25:33;;;;;;;;;;;;;;;19.52;41.00;100699.16;4924105;28;97951;-68
2023/06/26 00:28:01;;;;;;;;;;;;;;;19.48;40.97;100695.47;4920420;28;97966;-68
2023/06/26 00:30:27;;;;;;;;;;;;;;;19.46;40.88;100692.28;4921949;28;98949;-74
2023/06/26 00:32:53;;;;;;;;;;;;;;;19.43;41.11;100700.31;4943165;28;99594;-75
2023/06/26 00:35:20;;;;;;;;;;;;;;;19.40;40.89;100696.28;4923041;28;106889;-68
2023/06/26 00:37:47;;;;;;;;;;;;;;;19.37;40.93;100695.00;4942179;28;99202;-74
2023/06/26 00:40:13;;;;;;;;;;;;;;;19.36;41.13;100696.09;4923823;28;98230;-68
2023/06/26 00:42:40;;;;;;;;;;;;;;;19.34;40.98;100686.66;4928015;28;99531;-68
2023/06/26 00:45:06;;;;;;;;;;;;;;;19.33;40.98;100691.28;4938678;28;98590;-68
2023/06/26 00:47:33;;;;;;;;;;;;;;;19.32;41.27;100686.94;4937379;28;98258;-74
2023/06/26 00:50:00;;;;;;;;;;;;;;;19.31;40.99;100685.34;4927931;28;98365;-74
2023/06/26 00:52:26;;;;;;;;;;;;;;;19.28;41.07;100687.91;4918745;28;98272;-68
2023/06/26 00:54:52;;;;;;;;;;;;;;;19.25;40.97;100686.63;4924863;28;101580;-74
2023/06/26 00:57:19;;;;;;;;;;;;;;;19.22;41.08;100676.34;4924818;28;98545;-68
2023/06/26 00:59:46;;;;;;;;;;;;;;;19.19;41.24;100678.91;4923262;28;97962;-74
2023/06/26 01:02:17;;;;;;;;;;;;;;;19.17;41.16;100681.94;4926495;28;98147;-74
2023/06/26 01:04:46;;;;;;;;;;;;;;;19.15;41.09;100675.22;4938308;28;99551;-74
2023/06/26 01:07:13;;;;;;;;;;;;;;;19.14;41.18;100674.41;4926263;28;98205;-74
2023/06/26 01:09:39;;;;;;;;;;;;;;;19.10;41.18;100684.38;4940584;28;98002;-72
2023/06/26 01:12:06;;;;;;;;;;;;;;;19.06;41.22;100680.63;4921252;28;98149;-66
2023/06/26 01:14:33;;;;;;;;;;;;;;;19.01;41.10;100675.34;4922360;28;97929;-74
2023/06/26 01:17:01;;;;;;;;;;;;;;;18.98;41.30;100671.34;4940094;28;97969;-68
2023/06/26 01:19:29;;;;;;;;;;;;;;;18.97;41.20;100674.38;4925549;28;97999;-74
2023/06/26 01:22:02;;;;;;;;;;;;;;;18.94;41.35;100662.16;4927794;28;98375;-68
2023/06/26 01:24:33;;;;;;;;;;;;;;;18.95;41.33;100668.44;4918689;28;97968;-68
2023/06/26 01:26:59;;;;;;;;;;;;;;;18.90;41.20;100666.63;4919597;28;97992;-68
2023/06/26 01:29:26;;;;;;;;;;;;;;;18.87;41.14;100670.03;4937211;28;98177;-74
2023/06/26 01:31:53;;;;;;;;;;;;;;;18.84;41.41;100666.00;4945180;28;98035;-67
2023/06/26 01:34:21;;;;;;;;;;;;;;;18.83;41.29;100671.78;4923634;28;100600;-67
2023/06/26 01:36:48;;;;;;;;;;;;;;;18.80;41.27;100670.47;4935425;28;98711;-74
2023/06/26 01:39:20;;;;;;;;;;;;;;;18.79;41.41;100670.81;4923400;28;99376;-67
2023/06/26 01:41:46;;;;;;;;;;;;;;;18.78;41.36;100661.00;4943595;28;97985;-73
2023/06/26 01:44:31;;;;;;;;;;;;;;;18.77;41.40;100660.19;4928429;28;98270;-73
2023/06/26 01:47:05;;;;;;;;;;;;;;;18.76;41.41;100660.50;4946150;28;98142;-74
2023/06/26 01:49:37;;;;;;;;;;;;;;;18.75;41.33;100656.19;4941957;28;99282;-74
2023/06/26 01:52:21;;;;;;;;;;;;;;;18.73;41.33;100664.69;4953239;28;99639;-73
2023/06/26 01:55:10;;;;;;;;;;;;;;;18.72;41.43;100654.09;4945982;28;98220;-67
2023/06/26 01:57:36;;;;;;;;;;;;;;;18.72;41.19;100656.81;4932425;28;99508;-67
2023/06/26 02:00:03;;;;;;;;;;;;;;;18.70;41.48;100656.28;4927560;28;99603;-73
2023/06/26 02:02:30;;;;;;;;;;;;;;;18.68;41.33;100653.88;4922661;28;98112;-67
2023/06/26 02:04:56;;;;;;;;;;;;;;;18.67;41.21;100649.56;4941035;28;98264;-74
2023/06/26 02:07:23;;;;;;;;;;;;;;;18.67;41.42;100646.81;4929645;28;98007;-74
2023/06/26 02:09:49;;;;;;;;;;;;;;;18.64;41.31;100652.91;4922643;28;99256;-67
2023/06/26 02:12:15;;;;;;;;;;;;;;;18.60;41.42;100646.47;4943281;28;98224;-74
2023/06/26 02:14:41;;;;;;;;;;;;;;;18.58;41.41;100648.69;4927130;28;100232;-67
2023/06/26 02:17:09;;;;;;;;;;;;;;;18.53;41.53;100649.66;4927361;28;98200;-67
2023/06/26 02:19:35;;;;;;;;;;;;;;;18.50;41.32;100639.38;4925800;28;98499;-68
2023/06/26 02:22:01;;;;;;;;;;;;;;;18.49;41.35;100653.34;4931268;28;98297;-67
2023/06/26 02:24:29;;;;;;;;;;;;;;;18.44;41.41;100646.09;4926883;28;98201;-74
2023/06/26 02:26:57;;;;;;;;;;;;;;;18.41;41.39;100649.44;4931575;28;97826;-74
2023/06/26 02:29:23;;;;;;;;;;;;;;;18.38;41.55;100648.16;4957641;28;98023;-74
2023/06/26 02:31:50;;;;;;;;;;;;;;;18.39;41.54;100657.13;4942470;28;98069;-68
2023/06/26 02:34:17;;;;;;;;;;;;;;;18.39;41.43;100646.22;4925921;28;98688;-68
2023/06/26 02:36:43;;;;;;;;;;;;;;;18.38;41.64;100650.88;4928070;28;99336;-67
2023/06/26 02:39:09;;;;;;;;;;;;;;;18.43;41.62;100640.94;4925502;28;98298;-74
2023/06/26 02:41:35;;;;;;;;;;;;;;;18.47;41.71;100645.47;4922387;28;98099;-68
2023/06/26 02:44:02;;;;;;;;;;;;;;;18.52;41.52;100645.31;4958646;28;98681;-74
2023/06/26 02:46:28;;;;;;;;;;;;;;;18.57;41.60;100639.72;4943027;28;98310;-70
2023/06/26 02:48:54;;;;;;;;;;;;;;;18.59;41.48;100645.66;4924491;28;98452;-74
2023/06/26 02:51:20;;;;;;;;;;;;;;;18.61;41.42;100639.88;4927787;28;98136;-67
2023/06/26 02:53:47;;;;;;;;;;;;;;;18.63;41.45;100643.13;4928732;28;98100;-74
2023/06/26 02:56:13;;;;;;;;;;;;;;;18.64;41.46;100636.53;4918803;28;98005;-68
2023/06/26 02:58:39;;;;;;;;;;;;;;;18.67;41.57;100641.34;4940501;28;98132;-73
2023/06/26 03:01:05;;;;;;;;;;;;;;;18.67;41.64;100635.91;4926388;28;98267;-74
2023/06/26 03:03:40;;;;;;;;;;;;;;;18.67;41.55;100638.63;4927762;28;98350;-74
2023/06/26 03:06:07;;;;;;;;;;;;;;;18.67;41.61;100633.16;4939143;28;99481;-73
2023/06/26 03:08:35;;;;;;;;;;;;;;;18.65;41.71;100632.66;4948572;28;98300;-68
2023/06/26 03:11:02;;;;;;;;;;;;;;;18.64;41.45;100631.06;4943510;28;98266;-74
2023/06/26 03:13:28;;;;;;;;;;;;;;;18.63;41.67;100630.25;4928970;28;98408;-74
2023/06/26 03:15:54;;;;;;;;;;;;;;;18.62;41.60;100628.63;4924227;28;100318;-67
2023/06/26 03:18:21;;;;;;;;;;;;;;;18.63;41.60;100624.81;4937159;28;98076;-68
2023/06/26 03:20:49;;;;;;;;;;;;;;;18.63;41.59;100633.00;4938929;28;98186;-74
2023/06/26 03:23:15;;;;;;;;;;;;;;;18.61;41.55;100628.97;4924320;28;99702;-67
2023/06/26 03:25:43;;;;;;;;;;;;;;;18.60;41.70;100635.56;4936334;28;99509;-74
2023/06/26 03:28:10;;;;;;;;;;;;;;;18.58;41.60;100626.88;4924955;28;98041;-74
2023/06/26 03:30:37;;;;;;;;;;;;;;;18.56;41.68;100627.19;4926465;28;98618;-74
2023/06/26 03:33:04;;;;;;;;;;;;;;;18.54;41.79;100623.16;4926354;28;98466;-67
2023/06/26 03:35:30;;;;;;;;;;;;;;;18.52;41.58;100630.88;4939516;28;98084;-67
2023/06/26 03:37:57;;;;;;;;;;;;;;;18.50;41.53;100624.91;4926531;28;98370;-67
2023/06/26 03:40:24;;;;;;;;;;;;;;;18.47;41.77;100622.81;4926495;28;98260;-68
2023/06/26 03:42:50;;;;;;;;;;;;;;;18.45;41.60;100625.88;4943302;28;98277;-74
2023/06/26 03:45:17;;;;;;;;;;;;;;;18.42;41.76;100615.56;4924906;28;98001;-74
2023/06/26 03:47:44;;;;;;;;;;;;;;;18.40;41.56;100618.63;4900222;28;98598;-74
2023/06/26 03:50:10;;;;;;;;;;;;;;;18.37;41.61;100621.97;4917994;28;98075;-65
2023/06/26 03:52:37;;;;;;;;;;;;;;;18.35;41.66;100617.94;4927445;28;98027;-68
2023/06/26 03:55:05;;;;;;;;;;;;;;;18.35;41.74;100612.50;4925342;28;98333;-67
2023/06/26 03:57:32;;;;;;;;;;;;;;;18.34;41.64;100619.88;4940114;28;99058;-67
2023/06/26 03:59:59;;;;;;;;;;;;;;;18.33;41.57;100621.00;4930782;28;98421;-67
2023/06/26 04:02:26;;;;;;;;;;;;;;;18.33;41.70;100612.81;4928826;28;99854;-74
2023/06/26 04:04:56;;;;;;;;;;;;;;;18.35;41.59;100616.06;4925598;28;99210;-67
2023/06/26 04:07:22;;;;;;;;;;;;;;;18.38;41.61;100611.88;4942066;28;98147;-68
2023/06/26 04:09:48;;;;;;;;;;;;;;;18.43;41.44;100613.66;4923532;28;97980;-74
2023/06/26 04:12:15;;;;;;;;;;;;;;;18.46;41.55;100602.91;4937293;28;98556;-73
2023/06/26 04:14:41;;;;;;;;;;;;;;;18.51;41.47;100608.25;4924292;28;98239;-74
2023/06/26 04:17:07;;;;;;;;;;;;;;;18.56;41.64;100604.56;4923530;28;97926;-71
2023/06/26 04:19:35;;;;;;;;;;;;;;;18.60;41.41;100600.06;4924008;28;99682;-74
2023/06/26 04:22:02;;;;;;;;;;;;;;;18.67;41.34;100607.78;4920365;28;98467;-74
2023/06/26 04:24:28;;;;;;;;;;;;;;;18.70;41.33;100599.78;4927748;28;98470;-67
2023/06/26 04:26:57;;;;;;;;;;;;;;;18.76;41.41;100600.44;4920363;28;98002;-67
2023/06/26 04:29:27;;;;;;;;;;;;;;;18.82;41.32;100601.88;4917599;28;98064;-67
2023/06/26 04:31:57;;;;;;;;;;;;;;;18.89;41.31;100596.75;4943374;28;98623;-68
2023/06/26 04:34:25;;;;;;;;;;;;;;;18.96;41.30;100604.50;4920858;28;98036;-67
2023/06/26 04:36:52;;;;;;;;;;;;;;;19.03;41.30;100605.63;4923727;28;98312;-74
2023/06/26 04:39:19;;;;;;;;;;;;;;;19.10;41.41;100608.69;4930784;28;99739;-74
2023/06/26 04:41:45;;;;;;;;;;;;;;;19.18;41.10;100603.50;4922169;28;98403;-74
2023/06/26 04:44:12;;;;;;;;;;;;;;;19.27;41.32;100610.59;4936849;28;98235;-74
2023/06/26 04:46:41;;;;;;;;;;;;;;;19.37;41.23;100610.28;4923037;28;100207;-74
2023/06/26 04:49:11;;;;;;;;;;;;;;;19.49;41.10;100612.38;4923439;28;98757;-67
2023/06/26 04:51:42;;;;;;;;;;;;;;;19.61;41.05;100604.34;4918209;28;98273;-67
2023/06/26 04:54:09;;;;;;;;;;;;;;;19.72;40.99;100596.56;4931735;28;100176;-74
2023/06/26 04:56:36;;;;;;;;;;;;;;;19.83;41.00;100591.56;4915285;28;98363;-74
2023/06/26 04:59:02;;;;;;;;;;;;;;;19.93;40.93;100593.16;4936059;28;98238;-67
2023/06/26 05:01:29;;;;;;;;;;;;;;;20.01;40.93;100593.13;4921074;28;100091;-67
2023/06/26 05:04:02;;;;;;;;;;;;;;;20.14;40.89;100590.50;4914812;28;98337;-74
2023/06/26 05:06:29;;;;;;;;;;;;;;;20.28;40.69;100582.88;4916954;28;99311;-67
2023/06/26 05:08:55;;;;;;;;;;;;;;;20.44;40.69;100596.81;4920136;28;98394;-74
2023/06/26 05:11:22;;;;;;;;;;;;;;;20.64;40.58;100590.59;4917393;28;98317;-67
2023/06/26 05:13:49;;;;;;;;;;;;;;;20.83;40.39;100590.94;4940646;28;99232;-68
2023/06/26 05:16:15;;;;;;;;;;;;;;;21.02;40.33;100584.97;4941198;28;98824;-74
2023/06/26 05:18:43;;;;;;;;;;;;;;;21.20;40.28;100577.41;4930901;28;98133;-67
2023/06/26 05:21:09;;;;;;;;;;;;;;;21.38;40.19;100578.09;4921203;28;98102;-67
2023/06/26 05:23:36;;;;;;;;;;;;;;;21.54;40.15;100573.59;4927292;28;98043;-67
2023/06/26 05:26:03;;;;;;;;;;;;;;;21.73;40.06;100581.28;4924464;28;98277;-74
2023/06/26 05:28:34;;;;;;;;;;;;;;;21.92;39.99;100569.75;4928171;28;98320;-67
2023/06/26 05:31:00;;;;;;;;;;;;;;;22.11;39.89;100577.44;4946068;28;100041;-74
2023/06/26 05:33:27;;;;;;;;;;;;;;;22.33;39.70;100568.00;4925321;28;98607;-74
2023/06/26 05:35:54;;;;;;;;;;;;;;;22.54;39.45;100565.09;4928528;28;99202;-67
2023/06/26 05:38:21;;;;;;;;;;;;;;;22.78;39.53;100572.50;4944531;28;98384;-74
2023/06/26 05:40:48;;;;;;;;;;;;;;;23.03;39.38;100568.56;4928415;28;98421;-74
2023/06/26 05:43:14;;;;;;;;;;;;;;;23.32;39.50;100566.63;4927954;28;99441;-68
2023/06/26 05:45:41;;;;;;;;;;;;;;;23.61;39.36;100573.69;4920864;28;98033;-67
2023/06/26 05:48:07;;;;;;;;;;;;;;;23.97;38.94;100563.63;4929092;28;98128;-67
2023/06/26 05:50:34;;;;;;;;;;;;;;;24.40;39.04;100572.94;4943217;28;98614;-67
2023/06/26 05:53:02;;;;;;;;;;;;;;;24.59;38.99;100569.44;4923645;28;98230;-74
2023/06/26 05:55:29;;;;;;;;;;;;;;;24.93;38.90;100565.06;4929746;28;98116;-67
2023/06/26 05:57:56;;;;;;;;;;;;;;;25.28;38.71;100561.47;4926346;28;98269;-64
2023/06/26 06:00:23;;;;;;;;;;;;;;;25.68;38.89;100561.81;4925794;28;98333;-65
2023/06/26 06:02:54;;;;;;;;;;;;;;;26.18;38.83;100556.34;4932371;28;98148;-71
2023/06/26 06:05:21;;;;;;;;;;;;;;;26.70;38.63;100543.72;4920287;28;98023;-71
2023/06/26 06:07:47;;;;;;;;;;;;;;;27.26;38.68;100548.34;4931192;27;98173;-65
2023/06/26 06:10:14;;;;;;;;;;;;;;;28.29;38.08;100553.25;4922417;28;98191;-64
2023/06/26 06:12:41;;;;;;;;;;;;;;;28.78;37.88;100554.75;4946322;27;99448;-72
2023/06/26 06:15:07;;;;;;;;;;;;;;;31.43;35.29;100547.09;4928546;28;98246;-71
2023/06/26 06:17:34;;;;;;;;;;;;;;;31.39;35.84;100549.91;4930877;28;98147;-72
2023/06/26 06:20:01;;;;;;;;;;;;;;;31.02;36.74;100545.72;4928934;28;97953;-65
2023/06/26 06:22:28;;;;;;;;;;;;;;;31.49;37.07;100545.50;4924494;28;99174;-72
2023/06/26 06:24:54;;;;;;;;;;;;;;;32.20;36.51;100542.13;4924361;28;98111;-72
2023/06/26 06:27:20;;;;;;;;;;;;;;;32.71;36.70;100539.63;4939091;28;98292;-72
2023/06/26 06:29:47;;;;;;;;;;;;;;;33.92;36.29;100537.91;4929769;27;98267;-67
2023/06/26 06:32:14;;;;;;;;;;;;;;;35.00;35.56;100544.28;4947186;28;98405;-72
2023/06/26 06:34:40;;;;;;;;;;;;;;;35.42;35.44;100531.34;4930778;27;98417;-65
2023/06/26 06:37:06;;;;;;;;;;;;;;;37.17;33.75;100532.25;4933496;28;98189;-72
2023/06/26 06:39:33;;;;;;;;;;;;;;;37.59;33.64;100534.97;4927543;28;98784;-65
2023/06/26 06:41:59;;;;;;;;;;;;;;;37.03;34.53;100529.91;4944507;28;98491;-65
2023/06/26 06:44:25;;;;;;;;;;;;;;;36.51;34.89;100526.19;4930107;28;98047;-72
2023/06/26 06:46:51;;;;;;;;;;;;;;;36.28;35.49;100527.19;4949534;27;98068;-72
2023/06/26 06:49:18;;;;;;;;;;;;;;;36.16;35.46;100518.69;4950606;28;97903;-72
2023/06/26 06:51:45;;;;;;;;;;;;;;;36.10;35.47;100518.47;4930042;27;97857;-65
2023/06/26 06:54:11;;;;;;;;;;;;;;;35.88;35.78;100509.78;4926527;28;99414;-74
2023/06/26 06:56:37;;;;;;;;;;;;;;;35.82;35.83;100506.75;4928765;27;98179;-74
2023/06/26 06:59:03;;;;;;;;;;;;;;;35.95;35.70;100508.81;4929323;28;98106;-74
2023/06/26 07:01:30;;;;;;;;;;;;;;;36.21;35.53;100499.31;4930470;28;97967;-74
2023/06/26 07:03:57;;;;;;;;;;;;;;;36.35;35.20;100498.94;4931089;28;99275;-73
2023/06/26 07:06:23;;;;;;;;;;;;;;;36.40;35.21;100505.25;4929522;28;97962;-72
2023/06/26 07:08:49;;;;;;;;;;;;;;;36.59;35.03;100493.88;4930642;27;121201;-74
2023/06/26 07:11:15;;;;;;;;;;;;;;;36.94;34.80;100491.22;4929400;28;98496;-68
2023/06/26 07:13:42;;;;;;;;;;;;;;;37.26;34.76;100489.47;4926873;27;98172;-69
2023/06/26 07:16:11;;;;;;;;;;;;;;;37.44;34.62;100503.72;4930693;28;98812;-74
2023/06/26 07:18:38;;;;;;;;;;;;;;;37.63;33.95;100501.91;4930708;27;97991;-70
2023/06/26 07:21:04;;;;;;;;;;;;;;;37.73;34.29;100500.75;4930622;28;105053;-69
2023/06/26 07:23:30;;;;;;;;;;;;;;;37.96;34.08;100496.75;4925371;28;97978;-69
2023/06/26 07:25:56;;;;;;;;;;;;;;;38.23;33.95;100498.22;4929334;28;99505;-70
2023/06/26 07:28:22;;;;;;;;;;;;;;;38.57;33.88;100497.41;4935023;28;98225;-68
2023/06/26 07:30:49;;;;;;;;;;;;;;;38.71;33.87;100494.06;4926126;28;98012;-69
2023/06/26 07:33:16;;;;;;;;;;;;;;;38.84;33.71;100485.53;4928638;28;98317;-75
2023/06/26 07:35:42;;;;;;;;;;;;;;;39.02;33.94;100487.63;4927331;27;97912;-70
2023/06/26 07:38:09;;;;;;;;;;;;;;;39.22;33.67;100487.22;4930122;28;98086;-75
2023/06/26 07:40:35;;;;;;;;;;;;;;;39.45;33.66;100469.00;4931374;27;97995;-69
2023/06/26 07:43:01;;;;;;;;;;;;;;;39.61;33.43;100477.19;4947621;28;98258;-70
2023/06/26 07:45:28;;;;;;;;;;;;;;;39.85;33.39;100476.59;4931769;27;98086;-76
2023/06/26 07:47:54;;;;;;;;;;;;;;;40.21;33.13;100479.47;4925464;27;98145;-69
2023/06/26 07:50:22;;;;;;;;;;;;;;;40.70;32.86;100475.59;4925946;27;98038;-70
2023/06/26 07:52:48;;;;;;;;;;;;;;;41.29;32.55;100466.72;4931454;27;99418;-75
2023/06/26 07:55:15;;;;;;;;;;;;;;;41.90;31.90;100463.69;4926335;28;98313;-76
2023/06/26 07:57:41;;;;;;;;;;;;;;;42.33;32.19;100458.56;4926453;27;98107;-70
2023/06/26 08:00:08;;;;;;;;;;;;;;;42.79;31.77;100464.53;4928889;27;100702;-69
2023/06/26 08:02:34;;;;;;;;;;;;;;;43.37;31.53;100462.81;4926600;28;99056;-70
2023/06/26 08:05:00;;;;;;;;;;;;;;;43.80;31.24;100454.59;4930608;28;98343;-70
2023/06/26 08:07:26;;;;;;;;;;;;;;;44.17;31.24;100453.19;4927334;27;117383;-76
2023/06/26 08:09:53;;;;;;;;;;;;;;;44.71;31.21;100451.38;4922129;27;98057;-75
2023/06/26 08:12:19;;;;;;;;;;;;;;;45.21;30.87;100447.34;4941388;27;98197;-70
2023/06/26 08:14:45;;;;;;;;;;;;;;;45.78;30.88;100446.28;4929946;27;98060;-76
2023/06/26 08:17:12;;;;;;;;;;;;;;;46.32;30.52;100439.69;4926604;28;98369;-70
2023/06/26 08:19:38;;;;;;;;;;;;;;;46.84;30.31;100445.63;4939054;27;98173;-70
2023/06/26 08:22:04;;;;;;;;;;;;;;;47.37;30.19;100445.81;4940992;28;98484;-72
2023/06/26 08:24:31;;;;;;;;;;;;;;;47.72;29.72;100435.81;4928525;28;99043;-76
2023/06/26 08:26:58;;;;;;;;;;;;;;;48.11;29.81;100436.34;4929530;27;98364;-76
2023/06/26 08:29:25;;;;;;;;;;;;;;;48.52;29.59;100431.88;4928635;28;98021;-70
2023/06/26 08:31:51;;;;;;;;;;;;;;;48.84;29.62;100427.16;4931891;28;99279;-76
2023/06/26 08:34:18;;;;;;;;;;;;;;;49.14;29.48;100418.53;4921970;28;98364;-76
2023/06/26 08:36:44;;;;;;;;;;;;;;;49.28;29.49;100413.66;4930811;28;98397;-76
2023/06/26 08:39:11;;;;;;;;;;;;;;;49.34;29.40;100407.88;4927855;28;98588;-71
2023/06/26 08:41:37;;;;;;;;;;;;;;;49.45;29.66;100404.09;4930897;28;99057;-71
2023/06/26 08:44:04;;;;;;;;;;;;;;;49.73;29.58;100403.72;4923777;28;98273;-76
2023/06/26 08:46:30;;;;;;;;;;;;;;;50.07;28.89;100399.03;4928569;28;98166;-71
2023/06/26 08:48:59;;;;;;;;;;;;;;;50.34;28.79;100396.25;4929454;28;100393;-76
2023/06/26 08:51:26;;;;;;;;;;;;;;;50.52;28.96;100397.50;4929072;28;98146;-76
2023/06/26 08:53:59;;;;;;;;;;;;;;;50.73;28.91;100389.81;4928831;27;98155;-71
2023/06/26 08:56:32;;;;;;;;;;;;;;;51.06;28.69;100393.34;4925923;28;98140;-71
2023/06/26 08:58:58;;;;;;;;;;;;;;;51.02;28.84;100384.31;4948533;28;97922;-71
2023/06/26 09:01:25;;;;;;;;;;;;;;;51.16;28.94;100387.94;4928738;28;98158;-76
2023/06/26 09:03:52;;;;;;;;;;;;;;;51.37;28.56;100380.19;4926351;28;98594;-71
2023/06/26 09:06:18;;;;;;;;;;;;;;;51.51;28.83;100384.53;4928294;28;98333;-71
2023/06/26 09:08:44;;;;;;;;;;;;;;;51.89;28.68;100377.69;4928239;27;97963;-71
2023/06/26 09:11:11;;;;;;;;;;;;;;;52.00;28.22;100383.97;4927732;28;98363;-70
2023/06/26 09:13:37;;;;;;;;;;;;;;;52.06;28.16;100363.69;4941746;28;98451;-71
2023/06/26 09:16:09;;;;;;;;;;;;;;;52.01;28.38;100371.13;4930480;28;99200;-71
2023/06/26 09:18:35;;;;;;;;;;;;;;;52.44;28.08;100369.00;4960850;28;99982;-70
2023/06/26 09:21:06;;;;;;;;;;;;;;;51.97;28.81;100356.34;4926906;28;98327;-76
2023/06/26 09:23:32;;;;;;;;;;;;;;;50.91;29.41;100358.75;4945424;28;98093;-76
2023/06/26 09:25:59;;;;;;;;;;;;;;;49.93;29.94;100345.91;4929986;28;98395;-71
2023/06/26 09:28:26;;;;;;;;;;;;;;;49.37;30.64;100349.56;4925889;28;98013;-76
2023/06/26 09:30:52;;;;;;;;;;;;;;;48.86;30.75;100355.16;4929339;27;98181;-71
2023/06/26 09:33:19;;;;;;;;;;;;;;;48.64;30.71;100356.91;4929046;27;100024;-70
2023/06/26 09:35:47;;;;;;;;;;;;;;;48.91;30.40;100348.59;4922018;27;98294;-77
2023/06/26 09:38:13;;;;;;;;;;;;;;;49.56;29.87;100346.72;4928747;28;98056;-76
2023/06/26 09:40:40;;;;;;;;;;;;;;;50.17;29.50;100352.78;4940238;27;97875;-77
2023/06/26 09:43:09;;;;;;;;;;;;;;;50.50;28.96;100351.41;4938446;28;100066;-71
2023/06/26 09:45:38;;;;;;;;;;;;;;;51.11;28.48;100348.66;4928780;28;98182;-71
2023/06/26 09:48:05;;;;;;;;;;;;;;;51.42;28.12;100341.97;4940937;28;98193;-77
2023/06/26 09:50:34;;;;;;;;;;;;;;;51.68;28.56;100337.47;4923883;28;98098;-70
2023/06/26 09:53:10;;;;;;;;;;;;;;;51.99;27.84;100341.41;4929488;27;98285;-76
2023/06/26 09:55:37;;;;;;;;;;;;;;;52.08;27.88;100337.28;4921782;28;100690;-70
2023/06/26 09:58:03;;;;;;;;;;;;;;;52.26;28.01;100337.06;4921461;28;99477;-70
2023/06/26 10:00:33;;;;;;;;;;;;;;;52.47;27.79;100330.50;4946428;28;98275;-71
2023/06/26 10:02:59;;;;;;;;;;;;;;;52.70;27.92;100322.03;4946179;27;98075;-71
2023/06/26 10:05:25;;;;;;;;;;;;;;;52.73;27.73;100327.41;4947079;28;100367;-71
2023/06/26 10:07:52;;;;;;;;;;;;;;;52.61;28.01;100325.44;4933856;28;98832;-70
2023/06/26 10:10:19;;;;;;;;;;;;;;;52.47;28.27;100319.00;4944802;28;98383;-77
2023/06/26 10:12:47;;;;;;;;;;;;;;;52.33;28.07;100312.59;4925055;27;98059;-77
2023/06/26 10:15:16;;;;;;;;;;;;;;;52.24;28.60;100308.16;4931520;27;97936;-70
2023/06/26 10:17:42;;;;;;;;;;;;;;;52.37;28.49;100306.50;4933831;27;97896;-77
2023/06/26 10:20:09;;;;;;;;;;;;;;;52.22;28.16;100310.78;4944661;27;101058;-70
2023/06/26 10:22:44;;;;;;;;;;;;;;;52.32;28.57;100296.72;4927154;27;98204;-76
2023/06/26 10:25:11;;;;;;;;;;;;;;;52.35;28.04;100294.78;4932283;27;100064;-71
2023/06/26 10:27:38;;;;;;;;;;;;;;;52.29;28.27;100297.06;4947066;28;98492;-71
2023/06/26 10:30:06;;;;;;;;;;;;;;;52.06;28.75;100296.88;4947497;27;98023;-70
2023/06/26 10:32:33;;;;;;;;;;;;;;;51.85;28.49;100291.13;4939516;28;103942;-77
2023/06/26 10:35:02;;;;;;;;;;;;;;;51.96;28.52;100288.78;4930943;27;100142;-70
2023/06/26 10:37:48;;;;;;;;;;;;;;;52.20;28.24;100298.31;4923740;28;98019;-77
2023/06/26 10:40:20;;;;;;;;;;;;;;;52.16;28.23;100292.16;4948229;27;98063;-78
2023/06/26 10:42:46;;;;;;;;;;;;;;;52.38;28.46;100276.41;4932289;27;98047;-78
2023/06/26 10:45:17;;;;;;;;;;;;;;;52.26;28.17;100276.72;4926127;27;98072;-71
2023/06/26 10:47:47;;;;;;;;;;;;;;;50.49;29.91;100276.13;4941531;27;99373;-71
2023/06/26 10:50:19;;;;;;;;;;;;;;;51.43;28.76;100268.16;4933743;27;99296;-71
2023/06/26 10:53:06;;;;;;;;;;;;;;;51.67;28.84;100269.91;4955205;28;98205;-77
2023/06/26 10:55:32;;;;;;;;;;;;;;;51.83;28.54;100276.56;4946636;28;98278;-71
2023/06/26 10:57:59;;;;;;;;;;;;;;;51.68;28.48;100268.59;4943222;28;98032;-77
2023/06/26 11:00:25;;;;;;;;;;;;;;;51.65;28.78;100261.13;4926971;28;98116;-76
2023/06/26 11:02:51;;;;;;;;;;;;;;;51.49;28.81;100258.06;4931448;27;98125;-71
2023/06/26 11:05:25;;;;;;;;;;;;;;;51.40;28.74;100255.69;4923987;28;98959;-76
2023/06/26 11:08:08;;;;;;;;;;;;;;;51.44;28.97;100261.84;4926242;28;98027;-70
2023/06/26 11:10:51;;;;;;;;;;;;;;;51.42;28.52;100252.25;4942632;27;98443;-70
2023/06/26 11:13:19;;;;;;;;;;;;;;;51.27;28.92;100247.13;4947882;27;98113;-70
2023/06/26 11:15:48;;;;;;;;;;;;;;;50.86;29.32;100251.44;4928655;27;98087;-70
2023/06/26 11:18:14;;;;;;;;;;;;;;;49.10;30.59;100237.88;4947286;28;99811;-76
2023/06/26 11:20:41;;;;;;;;;;;;;;;50.61;28.78;100241.53;4929094;27;98119;-71
2023/06/26 11:23:08;;;;;;;;;;;;;;;50.60;29.14;100249.38;4932763;28;98135;-70
2023/06/26 11:25:38;;;;;;;;;;;;;;;50.54;28.95;100245.84;4950293;28;98798;-77
2023/06/26 11:28:09;;;;;;;;;;;;;;;50.33;29.20;100242.88;4944779;28;97815;-77
2023/06/26 11:30:35;;;;;;;;;;;;;;;50.19;29.39;100229.84;4924534;28;101194;-71
2023/06/26 11:33:05;;;;;;;;;;;;;;;50.12;29.30;100234.16;4946874;27;98098;-77
2023/06/26 11:35:31;;;;;;;;;;;;;;;50.03;29.53;100232.47;4941132;28;97850;-75
2023/06/26 11:38:00;;;;;;;;;;;;;;;48.51;30.64;100233.97;4935371;28;98101;-71
2023/06/26 11:40:31;;;;;;;;;;;;;;;48.37;30.49;100226.56;4930756;28;98168;-70
2023/06/26 11:42:58;;;;;;;;;;;;;;;48.26;30.52;100224.59;4950394;27;98039;-71
2023/06/26 11:45:24;;;;;;;;;;;;;;;48.05;30.73;100226.41;4922889;28;99816;-70
2023/06/26 11:47:51;;;;;;;;;;;;;;;46.08;32.06;100218.13;4944646;27;99337;-70
2023/06/26 11:50:19;;;;;;;;;;;;;;;45.32;32.72;100217.09;4928999;28;98027;-71
2023/06/26 11:52:45;;;;;;;;;;;;;;;45.08;32.46;100205.41;4933400;27;98231;-76
2023/06/26 11:55:12;;;;;;;;;;;;;;;45.64;31.86;100214.03;4932552;28;98071;-75
2023/06/26 11:57:38;;;;;;;;;;;;;;;44.95;32.26;100208.69;4930092;28;99919;-71
2023/06/26 12:00:12;;;;;;;;;;;;;;;43.70;33.12;100208.47;4941927;28;118752;-76
2023/06/26 12:02:38;;;;;;;;;;;;;;;42.68;33.51;100203.78;4945465;28;98052;-76
2023/06/26 12:05:05;;;;;;;;;;;;;;;43.29;32.76;100200.09;4932646;28;99621;-76
2023/06/26 12:07:31;;;;;;;;;;;;;;;42.34;33.50;100203.34;4927736;28;98197;-70
2023/06/26 12:09:58;;;;;;;;;;;;;;;43.11;32.80;100207.63;4945587;27;98174;-75
2023/06/26 12:12:25;;;;;;;;;;;;;;;42.57;32.81;100197.97;4945610;28;98076;-76
2023/06/26 12:14:53;;;;;;;;;;;;;;;42.24;33.29;100201.88;4928655;27;98293;-76
2023/06/26 12:17:22;;;;;;;;;;;;;;;42.49;32.89;100191.94;4922504;28;98095;-75
2023/06/26 12:19:49;;;;;;;;;;;;;;;41.31;33.85;100203.41;4945780;28;98488;-77
2023/06/26 12:22:15;;;;;;;;;;;;;;;40.72;33.97;100201.22;4929780;28;98737;-76
2023/06/26 12:24:42;;;;;;;;;;;;;;;40.69;33.57;100194.50;4945592;27;98061;-75
2023/06/26 12:27:16;;;;;;;;;;;;;;;41.43;32.80;100189.03;4932307;28;98001;-71
2023/06/26 12:29:53;;;;;;;;;;;;;;;41.24;32.75;100187.63;4932629;27;97976;-76
2023/06/26 12:32:24;;;;;;;;;;;;;;;41.45;32.51;100189.28;4936988;28;98461;-75
2023/06/26 12:34:50;;;;;;;;;;;;;;;41.96;32.03;100187.31;4945477;28;98062;-70
2023/06/26 12:37:16;;;;;;;;;;;;;;;42.33;31.75;100175.50;4939801;28;98246;-75